createdAt,value
2023-03-15T00:04:37.334Z,5.20
2023-03-15T00:09:54.376Z,5.30
2023-03-15T00:15:14.514Z,5.30
2023-03-15T00:20:31.148Z,5.30
2023-03-15T00:25:48.653Z,5.50
2023-03-15T00:31:17.267Z,5.40
2023-03-15T00:36:33.305Z,5.10
2023-03-15T00:41:49.267Z,5.10
2023-03-15T00:47:05.278Z,5.30
2023-03-15T00:52:22.366Z,5.50
2023-03-15T00:57:38.033Z,5.40
2023-03-15T01:02:55.219Z,5.40
2023-03-15T01:08:10.904Z,5.40
2023-03-15T01:13:26.923Z,5.50
2023-03-15T01:18:43.630Z,5.30
2023-03-15T01:23:59.546Z,5.20
2023-03-15T01:29:18.027Z,5.30
2023-03-15T01:34:34.203Z,5.20
2023-03-15T01:39:49.847Z,5.50
2023-03-15T01:45:44.380Z,5.40
2023-03-15T01:51:04.759Z,5.40
2023-03-15T01:56:22.774Z,5.20
2023-03-15T02:01:45.936Z,5.40
2023-03-15T02:07:03.851Z,5.40
2023-03-15T02:12:20.267Z,5.40
2023-03-15T02:17:45.305Z,5.50
2023-03-15T02:23:02.861Z,5.50
2023-03-15T02:28:20.280Z,5.50
2023-03-15T02:33:44.671Z,5.50
2023-03-15T02:39:01.567Z,5.90
2023-03-15T02:44:43.242Z,5.80
2023-03-15T02:49:58.944Z,5.60
2023-03-15T02:55:14.429Z,5.60
2023-03-15T03:00:31.013Z,5.60
2023-03-15T03:05:47.046Z,5.50
2023-03-15T03:11:03.313Z,5.60
2023-03-15T03:16:19.084Z,5.80
2023-03-15T03:21:34.913Z,5.60
2023-03-15T03:26:50.824Z,6.00
2023-03-15T03:32:06.953Z,5.70
2023-03-15T03:37:22.895Z,5.80
2023-03-15T03:42:38.341Z,5.70
2023-03-15T03:47:54.156Z,5.50
2023-03-15T03:53:09.625Z,5.40
2023-03-15T03:58:25.766Z,5.80
2023-03-15T04:03:41.700Z,5.50
2023-03-15T04:08:58.151Z,5.60
2023-03-15T04:14:15.220Z,5.60
2023-03-15T04:19:31.490Z,5.60
2023-03-15T04:24:50.827Z,5.50
2023-03-15T04:30:07.133Z,5.60
2023-03-15T04:35:22.993Z,5.40
2023-03-15T04:40:38.762Z,5.60
2023-03-15T04:45:54.801Z,5.40
2023-03-15T04:51:10.630Z,5.50
2023-03-15T04:56:26.328Z,5.70
2023-03-15T05:01:42.006Z,5.70
2023-03-15T05:06:57.876Z,5.70
2023-03-15T05:12:14.172Z,5.50
2023-03-15T05:17:29.921Z,5.30
2023-03-15T05:22:45.294Z,5.40
2023-03-15T05:28:04.766Z,5.20
2023-03-15T05:33:22.069Z,5.20
2023-03-15T05:38:37.734Z,5.60
2023-03-15T05:43:53.692Z,5.60
2023-03-15T05:49:09.947Z,5.50
2023-03-15T05:54:25.676Z,5.40
2023-03-15T05:59:42.321Z,5.70
2023-03-15T06:04:58.413Z,5.80
2023-03-15T06:10:14.353Z,5.80
2023-03-15T06:15:30.094Z,5.90
2023-03-15T06:20:46.236Z,6.00
2023-03-15T06:26:01.849Z,6.10
2023-03-15T06:31:17.950Z,6.00
2023-03-15T06:36:33.942Z,6.00
2023-03-15T06:41:49.937Z,6.20
2023-03-15T06:47:05.837Z,6.10
2023-03-15T06:52:21.857Z,6.10
2023-03-15T06:57:37.788Z,6.30
2023-03-15T07:02:53.710Z,6.20
2023-03-15T07:08:09.432Z,6.40
2023-03-15T07:13:25.227Z,6.40
2023-03-15T07:18:41.172Z,6.40
2023-03-15T07:23:56.923Z,6.50
2023-03-15T07:29:12.525Z,6.60
2023-03-15T07:34:28.138Z,6.60
2023-03-15T07:39:44.020Z,6.70
2023-03-15T07:45:00.036Z,6.70
2023-03-15T07:50:17.860Z,7.30
2023-03-15T07:55:37.281Z,7.00
2023-03-15T08:00:56.623Z,7.10
2023-03-15T08:06:12.472Z,7.70
2023-03-15T08:11:28.343Z,8.40
2023-03-15T08:16:44.454Z,8.90
2023-03-15T08:22:00.307Z,8.60
2023-03-15T08:27:16.754Z,9.00
2023-03-15T08:32:32.563Z,8.90
2023-03-15T08:37:48.237Z,9.00
2023-03-15T08:43:04.100Z,8.30
2023-03-15T08:48:19.906Z,8.20
2023-03-15T08:53:35.862Z,8.10
2023-03-15T08:58:51.840Z,8.30
2023-03-15T09:04:07.817Z,8.90
2023-03-15T09:09:23.976Z,9.20
2023-03-15T09:14:39.530Z,9.30
2023-03-15T09:19:54.785Z,9.40
2023-03-15T09:25:11.105Z,9.50
2023-03-15T09:30:26.963Z,9.90
2023-03-15T09:35:42.743Z,10.50
2023-03-15T09:41:03.913Z,10.70
2023-03-15T09:46:31.233Z,11.30
2023-03-15T09:52:19.451Z,11.50
2023-03-15T09:57:43.626Z,11.50
2023-03-15T10:03:03.937Z,11.60
2023-03-15T10:08:20.062Z,11.50
2023-03-15T10:13:39.073Z,11.90
2023-03-15T10:19:20.975Z,11.50
2023-03-15T10:24:43.449Z,11.20
2023-03-15T10:29:59.949Z,11.00
2023-03-15T10:35:18.161Z,11.30
2023-03-15T10:40:46.014Z,11.40
2023-03-15T10:46:01.606Z,10.80
2023-03-15T10:51:26.020Z,10.90
2023-03-15T10:56:49.635Z,10.90
2023-03-15T11:02:26.070Z,11.20
2023-03-15T11:07:58.939Z,12.10
2023-03-15T11:13:23.576Z,12.30
2023-03-15T11:19:01.800Z,12.60
2023-03-15T11:24:28.426Z,12.90
2023-03-15T11:29:49.173Z,11.80
2023-03-15T11:35:08.151Z,11.80
2023-03-15T11:40:38.371Z,11.90
2023-03-15T11:46:04.858Z,11.90
2023-03-15T11:51:20.859Z,12.00
2023-03-15T11:56:51.474Z,11.00
2023-03-15T12:02:10.203Z,10.90
2023-03-15T12:07:38.572Z,11.80
2023-03-15T12:13:00.243Z,12.10
2023-03-15T12:18:20.221Z,12.70
2023-03-15T12:23:47.057Z,12.40
2023-03-15T12:29:09.066Z,11.80
2023-03-15T12:34:47.573Z,12.40
2023-03-15T12:40:19.140Z,12.50
2023-03-15T12:45:40.678Z,12.40
2023-03-15T12:51:01.884Z,12.40
2023-03-15T12:56:39.088Z,12.40
2023-03-15T13:01:57.298Z,12.10
2023-03-15T13:07:48.929Z,12.10
2023-03-15T13:13:21.464Z,11.60
2023-03-15T13:18:55.430Z,11.20
2023-03-15T13:24:19.884Z,10.70
2023-03-15T13:29:35.954Z,10.40
2023-03-15T13:34:51.862Z,9.80
2023-03-15T13:40:13.802Z,9.50
2023-03-15T13:45:29.552Z,9.60
2023-03-15T13:50:50.154Z,9.70
2023-03-15T13:56:10.018Z,9.80
2023-03-15T14:01:27.129Z,10.00
2023-03-15T14:06:46.014Z,10.10
2023-03-15T14:12:04.885Z,9.90
2023-03-15T14:17:29.709Z,9.80
2023-03-15T14:22:45.587Z,10.00
2023-03-15T14:28:02.838Z,10.10
2023-03-15T14:33:33.546Z,9.80
2023-03-15T14:38:55.192Z,9.90
2023-03-15T14:44:10.939Z,10.10
2023-03-15T14:49:28.712Z,10.10
2023-03-15T14:54:50.003Z,9.90
2023-03-15T15:00:09.533Z,10.00
2023-03-15T15:05:27.571Z,9.90
2023-03-15T15:10:45.474Z,9.90
2023-03-15T15:16:02.093Z,9.90
2023-03-15T15:21:26.205Z,9.70
2023-03-15T15:26:43.635Z,9.70
2023-03-15T15:31:59.334Z,9.50
2023-03-15T15:37:15.786Z,9.40
2023-03-15T15:42:31.390Z,9.30
2023-03-15T15:47:47.802Z,9.30
2023-03-15T15:53:06.444Z,9.20
2023-03-15T15:58:22.969Z,9.10
2023-03-15T16:03:38.492Z,8.90
2023-03-15T16:08:55.455Z,9.00
2023-03-15T16:14:16.237Z,8.80
2023-03-15T16:19:31.725Z,8.80
2023-03-15T16:24:51.112Z,8.70
2023-03-15T16:30:07.757Z,8.40
2023-03-15T16:35:30.462Z,8.40
2023-03-15T16:40:46.643Z,8.30
2023-03-15T16:46:02.388Z,8.20
2023-03-15T16:51:18.386Z,7.70
2023-03-15T16:56:36.620Z,7.80
2023-03-15T17:01:52.450Z,7.80
2023-03-15T17:07:11.210Z,7.80
2023-03-15T17:12:29.363Z,7.60
2023-03-15T17:17:45.240Z,7.60
2023-03-15T17:23:04.733Z,7.60
2023-03-15T17:28:20.873Z,7.40
2023-03-15T17:33:36.826Z,7.30
2023-03-15T17:38:53.968Z,6.90
2023-03-15T17:44:11.220Z,6.70
2023-03-15T17:49:26.622Z,6.70
2023-03-15T17:54:42.519Z,6.70
2023-03-15T17:59:58.474Z,6.50
2023-03-15T18:05:23.315Z,6.20
2023-03-15T18:10:44.390Z,6.00
2023-03-15T18:16:00.298Z,5.90
2023-03-15T18:21:22.058Z,5.70
2023-03-15T18:26:37.727Z,5.80
2023-03-15T18:31:53.238Z,6.00
2023-03-15T18:37:09.933Z,5.70
2023-03-15T18:42:25.636Z,5.40
2023-03-15T18:47:41.569Z,5.20
2023-03-15T18:52:58.224Z,4.80
2023-03-15T18:58:13.691Z,4.70
2023-03-15T19:03:29.657Z,4.20
2023-03-15T19:08:46.017Z,3.70
2023-03-15T19:14:01.937Z,3.60
2023-03-15T19:19:17.680Z,3.60
2023-03-15T19:24:33.308Z,3.20
2023-03-15T19:29:48.934Z,3.00
2023-03-15T19:35:05.141Z,3.00
2023-03-15T19:40:21.141Z,2.80
2023-03-15T19:45:36.540Z,2.80
2023-03-15T19:50:52.015Z,3.10
2023-03-15T19:56:09.850Z,3.00
2023-03-15T20:01:25.716Z,2.70
2023-03-15T20:06:41.567Z,2.50
2023-03-15T20:11:57.692Z,2.60
2023-03-15T20:17:13.358Z,2.60
2023-03-15T20:22:29.271Z,2.00
2023-03-15T20:27:45.506Z,1.90
2023-03-15T20:33:01.693Z,2.10
2023-03-15T20:38:17.481Z,2.20
2023-03-15T20:43:34.182Z,2.00
2023-03-15T20:48:50.084Z,1.80
2023-03-15T20:54:06.094Z,1.70
2023-03-15T20:59:22.802Z,1.50
2023-03-15T21:04:38.498Z,1.50
2023-03-15T21:09:54.483Z,1.40
2023-03-15T21:15:17.823Z,1.40
2023-03-15T21:20:33.785Z,2.00
2023-03-15T21:25:55.799Z,1.80
2023-03-15T21:31:12.247Z,1.70
2023-03-15T21:36:28.149Z,1.60
2023-03-15T21:41:44.479Z,1.80
2023-03-15T21:47:02.178Z,2.00
2023-03-15T21:52:18.100Z,1.60
2023-03-15T21:57:34.202Z,1.70
2023-03-15T22:02:55.632Z,1.90
2023-03-15T22:08:11.856Z,1.40
2023-03-15T22:13:27.824Z,1.40
2023-03-15T22:18:43.925Z,1.00
2023-03-15T22:24:00.113Z,0.50
2023-03-15T22:29:15.977Z,0.60
2023-03-15T22:34:34.473Z,1.00
2023-03-15T22:39:50.412Z,0.80
2023-03-15T22:45:07.359Z,0.40
2023-03-15T22:50:23.220Z,0.60
2023-03-15T22:55:39.109Z,0.90
2023-03-15T23:00:55.600Z,0.80
2023-03-15T23:06:11.308Z,0.90
2023-03-15T23:11:27.276Z,0.80
2023-03-15T23:16:43.108Z,0.20
2023-03-15T23:21:58.953Z,0.30
2023-03-15T23:27:14.424Z,0.60
2023-03-15T23:32:31.428Z,0.50
2023-03-15T23:37:48.102Z,0.70
2023-03-15T23:43:06.012Z,0.70
2023-03-15T23:48:22.319Z,0.70
2023-03-15T23:53:37.584Z,0.20
2023-03-15T23:58:54.496Z,0.00
